Columbiaville, NY (12050)

2:39 PM EDT on June 02, 2015 (GMT -0400)
Columbia-Greene Community College | | Change Station
CLOSE
Current Station
Personal Weather Station
Location: Hudson, NY
Elevation: 161 ft
Nearby Weather Stations

Elev 161 ft 42.22 °N, 73.83 °W | Updated 27 seconds ago

Overcast
Overcast
50.0 °F
Feels Like 49 °F
N
4.0
Wind Variable Wind from SSW
Gusts 5.0 mph

Today
High -- | Low -- °F
--% Chance of Precip.
Yesterday
High -- | Low -- °F
Precip. -- in
5:20 AM 8:25 PM
Full, 100% visible
Pressure 30.14 in
Visibility 10.0 miles
Clouds Overcast 1300 ft
Windchill 49 °F
Dew Point 45 °F
Humidity 83%
Rainfall 0.18 in
Snow Depth Not available.
UV 3 out of 12
Pollen 5.70 out of 12
Air Quality Not available.
Flu Activity Sporadic
METAR KPSF 021754Z AUTO 04005KT 10SM OVC013 11/08 A3015 RMK AO2 SLP206 60002 T01110078 10111 20072 58002

More Conditions Fewer Conditions

Pressure 30.14 in
Visibility 10.0 miles
Clouds Overcast 1300 ft
Windchill 49 °F
Dew Point 45 °F
Humidity 83%
Rainfall 0.18 in
Snow Depth Not available.
UV 3 out of 12
Pollen 5.70 out of 12
Air Quality Not available.
Flu Activity Sporadic
METAR KPSF 021754Z AUTO 04005KT 10SM OVC013 11/08 A3015 RMK AO2 SLP206 60002 T01110078 10111 20072 58002

More Conditions Fewer Conditions

10-Day Weather Forecast

×

Almanac

Astronomy

Jun. 02, 2015 Rise Set
Actual Time
Civil Twilight
Nautical Twilight
Astronomical Twilight
Moon
Length of Visible Light
Length of Day
Tomorrow will be .
, % of the Moon is Illuminated

Today's Extremes

State Highs State Lows

Community

WunderPhotos

Upload Photos

1,825,997 photos uploaded!

WunderBlogs® & News

Nearby

Air Quality

  Air Quality AQ Index Pollutant
Not available.

Snow Depth

Station Depth Elevation

Earthquake Activity

City Distance Mag. Time & Date
Minimum magnitude displayed is 2.5.

Coastal Water Temperatures

Place Temperature

Stations

Nearby Weather Stations

Station Location Temp. Windchill Dew Point Humidity Wind Precip. Elev Updated Type